KMGM/MGM METAR and TAF weather

Enter ICAO airport designator
Station Type Date Time Source
KMGM METAR 2019/08/26 06:53 UTC NOAA

KMGM 260653Z AUTO 10008KT 10SM OVC010 23/22 A2995 RMK AO2 CIG 007V013 SLP140 T02330217 $


Station Type Date Time Source
KMGM Decoded METAR 2019/08/26 06:53 UTC NOAA

Station name not available
Aug 26, 2019 - 02:53 AM EDT / 2019.08.26 0653 UTC
Wind: from the E (100 degrees) at 9 MPH (8 KT):0
Visibility: 10 mile(s):0
Sky conditions: overcast
Temperature: 73.9 F (23.3 C)
Dew Point: 71.1 F (21.7 C)
Relative Humidity: 90%
Pressure (altimeter): 29.95 in. Hg (1014 hPa)
ob: KMGM 260653Z AUTO 10008KT 10SM OVC010 23/22 A2995 RMK AO2 CIG 007V013 SLP140 T02330217
cycle: 7

Station Type Date Time Source
KMGM TAF 2019/08/26 06:34 UTC NOAA

TAF KMGM 260532Z 2606/2706 11007KT P6SM VCSH OVC009
FM261600 11010KT P6SM VCTS BKN025CB
FM270000 12002KT P6SM OVC050

Example: see airport list